createdAt,value
2023-04-24T00:01:43.987Z,1.00
2023-04-24T00:04:17.693Z,0.70
2023-04-24T00:06:50.697Z,1.17
2023-04-24T00:09:20.358Z,0.90
2023-04-24T00:11:50.140Z,1.00
2023-04-24T00:14:22.431Z,0.70
2023-04-24T00:16:52.192Z,0.70
2023-04-24T00:19:22.395Z,0.90
2023-04-24T00:21:53.031Z,0.90
2023-04-24T00:24:22.741Z,0.70
2023-04-24T00:26:53.028Z,0.80
2023-04-24T00:29:25.533Z,0.70
2023-04-24T00:31:55.286Z,0.68
2023-04-24T00:34:25.106Z,0.55
2023-04-24T00:36:54.898Z,0.70
2023-04-24T00:39:24.784Z,0.60
2023-04-24T00:41:54.986Z,0.90
2023-04-24T00:44:27.519Z,0.73
2023-04-24T00:46:58.968Z,0.77
2023-04-24T00:49:28.648Z,0.70
2023-04-24T00:52:00.537Z,0.98
2023-04-24T00:54:30.241Z,0.80
2023-04-24T00:57:00.032Z,0.50
2023-04-24T00:59:32.443Z,0.60
2023-04-24T01:02:02.311Z,0.60
2023-04-24T01:04:32.905Z,0.70
2023-04-24T01:07:02.786Z,0.98
2023-04-24T01:09:33.224Z,0.90
2023-04-24T01:12:03.439Z,0.80
2023-04-24T01:14:35.940Z,0.90
2023-04-24T01:17:05.754Z,0.90
2023-04-24T01:19:35.950Z,1.10
2023-04-24T01:22:13.888Z,1.10
2023-04-24T01:24:44.676Z,0.90
2023-04-24T01:27:16.246Z,0.77
2023-04-24T01:29:50.444Z,0.98
2023-04-24T01:32:20.473Z,0.80
2023-04-24T01:34:50.991Z,0.80
2023-04-24T01:37:23.258Z,0.80
2023-04-24T01:39:53.008Z,1.10
2023-04-24T01:42:22.907Z,0.95
2023-04-24T01:44:52.885Z,0.73
2023-04-24T01:47:22.765Z,0.85
2023-04-24T01:49:54.611Z,0.80
2023-04-24T01:52:28.293Z,0.75
2023-04-24T01:54:58.127Z,0.70
2023-04-24T01:57:27.947Z,0.80
2023-04-24T01:59:57.805Z,0.60
2023-04-24T02:02:28.826Z,0.70
2023-04-24T02:05:00.482Z,0.80
2023-04-24T02:07:33.938Z,0.68
2023-04-24T02:10:05.165Z,0.70
2023-04-24T02:12:36.481Z,0.75
2023-04-24T02:15:06.760Z,0.80
2023-04-24T02:17:37.478Z,0.52
2023-04-24T02:20:08.776Z,0.50
2023-04-24T02:22:41.088Z,0.65
2023-04-24T02:25:11.920Z,0.63
2023-04-24T02:27:41.684Z,0.60
2023-04-24T02:30:12.750Z,0.60
2023-04-24T02:32:42.810Z,0.60
2023-04-24T02:35:14.834Z,0.50
2023-04-24T02:37:47.141Z,0.63
2023-04-24T02:40:17.193Z,0.50
2023-04-24T02:42:46.874Z,0.60
2023-04-24T02:45:17.207Z,0.55
2023-04-24T02:47:47.177Z,0.40
2023-04-24T02:50:16.969Z,0.40
2023-04-24T02:52:49.233Z,0.40
2023-04-24T02:55:19.163Z,0.60
2023-04-24T02:57:49.000Z,0.40
2023-04-24T03:00:19.307Z,0.50
2023-04-24T03:02:50.718Z,0.70
2023-04-24T03:05:20.794Z,0.40
2023-04-24T03:07:53.787Z,0.52
2023-04-24T03:10:26.340Z,0.68
2023-04-24T03:12:56.153Z,0.52
2023-04-24T03:15:25.894Z,0.60
2023-04-24T03:17:56.866Z,0.40
2023-04-24T03:20:27.472Z,0.82
2023-04-24T03:23:01.063Z,0.35
2023-04-24T03:25:30.740Z,0.73
2023-04-24T03:28:00.623Z,0.80
2023-04-24T03:30:42.222Z,0.70
2023-04-24T03:33:13.554Z,0.60
2023-04-24T03:35:51.001Z,0.70
2023-04-24T03:38:23.264Z,0.47
2023-04-24T03:41:20.160Z,0.32
2023-04-24T03:43:56.480Z,0.60
2023-04-24T03:46:26.332Z,0.55
2023-04-24T03:49:01.876Z,0.73
2023-04-24T03:51:36.558Z,0.50
2023-04-24T03:54:25.599Z,0.60
2023-04-24T03:56:56.393Z,0.68
2023-04-24T03:59:27.885Z,0.65
2023-04-24T04:02:13.882Z,0.43
2023-04-24T04:04:44.045Z,0.45
2023-04-24T04:07:14.069Z,0.65
2023-04-24T04:09:46.956Z,0.40
2023-04-24T04:12:16.918Z,0.50
2023-04-24T04:14:46.964Z,0.73
2023-04-24T04:17:16.771Z,0.70
2023-04-24T04:19:46.617Z,1.60
2023-04-24T04:22:17.078Z,0.70
2023-04-24T04:24:52.769Z,1.15
2023-04-24T04:27:25.770Z,0.50
2023-04-24T04:30:05.928Z,1.02
2023-04-24T04:32:43.433Z,0.73
2023-04-24T04:35:13.359Z,0.88
2023-04-24T04:37:43.480Z,0.50
2023-04-24T04:43:00.418Z,0.70
2023-04-24T04:45:35.586Z,0.90
2023-04-24T04:48:24.639Z,0.82
2023-04-24T04:50:55.288Z,0.70
2023-04-24T04:53:26.318Z,0.70
2023-04-24T04:55:58.716Z,0.90
2023-04-24T04:58:35.287Z,0.77
2023-04-24T05:01:06.136Z,0.88
2023-04-24T05:03:41.236Z,0.65
2023-04-24T05:06:13.847Z,0.90
2023-04-24T05:08:44.156Z,1.95
2023-04-24T05:11:25.508Z,0.80
2023-04-24T05:13:55.688Z,0.90
2023-04-24T05:16:33.217Z,0.82
2023-04-24T05:19:03.052Z,0.90
2023-04-24T05:21:37.765Z,0.70
2023-04-24T05:24:08.094Z,0.90
2023-04-24T05:26:56.718Z,0.80
2023-04-24T05:29:31.964Z,0.68
2023-04-24T05:32:01.936Z,1.10
2023-04-24T05:34:33.590Z,0.95
2023-04-24T05:37:03.339Z,0.77
2023-04-24T05:39:33.037Z,0.82
2023-04-24T05:42:06.986Z,0.80
2023-04-24T05:44:36.734Z,1.20
2023-04-24T05:47:07.123Z,1.10
2023-04-24T05:49:36.807Z,0.98
2023-04-24T05:52:09.866Z,0.80
2023-04-24T05:54:41.118Z,1.00
2023-04-24T05:57:13.952Z,1.50
2023-04-24T05:59:54.451Z,0.80
2023-04-24T06:02:25.818Z,0.98
2023-04-24T06:04:56.700Z,1.33
2023-04-24T06:07:27.791Z,0.90
2023-04-24T06:09:57.950Z,1.35
2023-04-24T06:12:30.859Z,1.77
2023-04-24T06:15:05.484Z,1.08
2023-04-24T06:18:07.937Z,1.52
2023-04-24T06:20:42.989Z,0.60
2023-04-24T06:23:13.353Z,0.80
2023-04-24T06:25:43.175Z,0.85
2023-04-24T06:28:17.796Z,0.90
2023-04-24T06:30:47.532Z,1.35
2023-04-24T06:33:21.265Z,0.85
2023-04-24T06:35:52.320Z,0.63
2023-04-24T06:38:21.988Z,0.80
2023-04-24T06:40:51.673Z,0.80
2023-04-24T06:43:23.894Z,0.75
2023-04-24T06:45:53.943Z,0.85
2023-04-24T06:48:23.639Z,0.60
2023-04-24T06:50:53.512Z,0.60
2023-04-24T06:53:23.207Z,0.70
2023-04-24T06:55:53.108Z,1.00
2023-04-24T06:58:25.416Z,0.65
2023-04-24T07:00:55.329Z,0.55
2023-04-24T07:03:25.169Z,0.55
2023-04-24T07:05:55.061Z,0.50
2023-04-24T07:08:25.063Z,0.60
2023-04-24T07:10:55.305Z,0.57
2023-04-24T07:13:27.690Z,0.50
2023-04-24T07:15:57.821Z,0.60
2023-04-24T07:18:27.738Z,0.40
2023-04-24T07:20:57.686Z,0.50
2023-04-24T07:23:27.390Z,0.50
2023-04-24T07:25:57.096Z,0.68
2023-04-24T07:28:32.144Z,0.47
2023-04-24T07:31:02.175Z,0.60
2023-04-24T07:33:31.949Z,0.90
2023-04-24T07:36:02.504Z,0.63
2023-04-24T07:38:33.286Z,0.50
2023-04-24T07:41:03.035Z,0.38
2023-04-24T07:43:35.289Z,0.57
2023-04-24T07:46:07.144Z,0.50
2023-04-24T07:48:38.784Z,0.80
2023-04-24T07:51:11.272Z,1.20
2023-04-24T07:53:40.940Z,0.73
2023-04-24T07:56:10.757Z,0.70
2023-04-24T07:58:43.143Z,0.80
2023-04-24T08:01:13.895Z,1.10
2023-04-24T08:03:43.840Z,1.00
2023-04-24T08:06:13.716Z,0.80
2023-04-24T08:08:43.421Z,0.90
2023-04-24T08:11:13.180Z,0.77
2023-04-24T08:13:45.632Z,0.73
2023-04-24T08:16:15.806Z,0.70
2023-04-24T08:18:45.579Z,0.68
2023-04-24T08:21:18.315Z,0.70
2023-04-24T08:23:48.394Z,0.70
2023-04-24T08:26:18.261Z,0.90
2023-04-24T08:28:50.637Z,0.85
2023-04-24T08:31:20.372Z,0.80
2023-04-24T08:33:50.112Z,0.55
2023-04-24T08:36:20.074Z,1.58
2023-04-24T08:38:50.228Z,1.08
2023-04-24T08:41:22.517Z,0.77
2023-04-24T08:43:56.223Z,0.80
2023-04-24T08:46:26.740Z,0.77
2023-04-24T08:48:56.528Z,0.77
2023-04-24T08:51:26.981Z,0.73
2023-04-24T08:53:58.750Z,0.80
2023-04-24T08:56:28.918Z,1.73
2023-04-24T08:59:01.651Z,0.88
2023-04-24T09:01:33.028Z,1.50
2023-04-24T09:04:06.502Z,1.15
2023-04-24T09:06:36.707Z,2.22
2023-04-24T09:09:06.968Z,2.13
2023-04-24T09:11:36.674Z,1.48
2023-04-24T09:14:09.241Z,1.30
2023-04-24T09:16:39.395Z,1.23
2023-04-24T09:19:09.105Z,1.15
2023-04-24T09:21:39.879Z,1.08
2023-04-24T09:24:11.130Z,1.40
2023-04-24T09:26:40.897Z,1.30
2023-04-24T09:29:18.896Z,1.35
2023-04-24T09:31:49.423Z,1.20
2023-04-24T09:34:25.525Z,0.93
2023-04-24T09:36:58.726Z,0.93
2023-04-24T09:39:28.434Z,0.73
2023-04-24T09:42:00.367Z,0.80
2023-04-24T09:44:32.744Z,1.33
2023-04-24T09:47:03.194Z,0.93
2023-04-24T09:49:34.613Z,0.95
2023-04-24T09:52:08.414Z,0.80
2023-04-24T09:54:38.486Z,0.77
2023-04-24T09:57:09.028Z,1.00
2023-04-24T09:59:46.220Z,0.85
2023-04-24T10:02:21.824Z,0.90
2023-04-24T10:07:29.690Z,1.17
2023-04-24T10:09:59.983Z,1.25
2023-04-24T10:12:31.008Z,1.05
2023-04-24T10:15:04.192Z,1.30
2023-04-24T10:17:34.147Z,1.10
2023-04-24T10:20:04.688Z,1.30
2023-04-24T10:22:34.662Z,1.63
2023-04-24T10:25:06.723Z,1.13
2023-04-24T10:27:38.394Z,1.42
2023-04-24T10:30:12.658Z,0.98
2023-04-24T10:32:42.616Z,0.90
2023-04-24T10:35:13.284Z,1.13
2023-04-24T10:37:46.121Z,1.10
2023-04-24T10:40:21.962Z,1.20
2023-04-24T10:42:52.455Z,1.10
2023-04-24T10:45:26.269Z,1.10
2023-04-24T10:47:57.791Z,1.00
2023-04-24T10:50:28.908Z,1.55
2023-04-24T10:53:09.401Z,1.20
2023-04-24T10:55:47.568Z,1.70
2023-04-24T10:58:17.949Z,1.27
2023-04-24T11:01:00.921Z,1.10
2023-04-24T11:03:33.038Z,0.95
2023-04-24T11:06:04.789Z,0.93
2023-04-24T11:08:39.988Z,1.00
2023-04-24T11:11:14.847Z,1.00
2023-04-24T11:14:06.322Z,0.95
2023-04-24T11:16:42.359Z,0.63
2023-04-24T11:19:13.821Z,1.30
2023-04-24T11:21:45.647Z,1.00
2023-04-24T11:24:29.334Z,1.42
2023-04-24T11:27:00.528Z,0.77
2023-04-24T11:29:44.105Z,1.48
2023-04-24T11:32:27.927Z,1.17
2023-04-24T11:34:59.446Z,1.90
2023-04-24T11:37:31.651Z,1.10
2023-04-24T11:40:03.059Z,1.70
2023-04-24T11:42:37.701Z,1.73
2023-04-24T11:45:12.535Z,1.50
2023-04-24T11:47:46.591Z,1.75
2023-04-24T11:50:18.242Z,1.40
2023-04-24T11:52:50.350Z,2.53
2023-04-24T11:55:31.355Z,1.58
2023-04-24T11:58:02.785Z,1.45
2023-04-24T12:00:35.476Z,1.30
2023-04-24T12:03:13.506Z,1.48
2023-04-24T12:05:45.118Z,1.25
2023-04-24T12:08:14.909Z,1.00
2023-04-24T12:10:44.603Z,1.27
2023-04-24T12:13:15.045Z,2.03
2023-04-24T12:15:44.971Z,0.90
2023-04-24T12:18:18.732Z,1.00
2023-04-24T12:20:48.473Z,1.13
2023-04-24T12:23:18.869Z,1.02
2023-04-24T12:25:48.552Z,0.90
2023-04-24T12:28:18.444Z,0.80
2023-04-24T12:30:52.367Z,1.00
2023-04-24T12:33:25.468Z,1.13
2023-04-24T12:35:57.077Z,1.10
2023-04-24T12:38:28.894Z,0.73
2023-04-24T12:41:06.906Z,0.90
2023-04-24T12:43:37.214Z,0.93
2023-04-24T12:46:07.728Z,0.88
2023-04-24T12:48:40.295Z,1.10
2023-04-24T12:51:10.244Z,1.20
2023-04-24T12:53:40.483Z,0.90
2023-04-24T12:56:10.878Z,1.10
2023-04-24T12:58:41.209Z,0.80
2023-04-24T13:01:10.949Z,0.60
2023-04-24T13:03:44.420Z,0.68
2023-04-24T13:06:14.411Z,0.80
2023-04-24T13:08:44.072Z,0.60
2023-04-24T13:11:13.780Z,0.90
2023-04-24T13:13:43.843Z,0.80
2023-04-24T13:16:13.777Z,0.70
2023-04-24T13:18:46.176Z,0.60
2023-04-24T13:21:15.987Z,0.57
2023-04-24T13:23:45.729Z,0.57
2023-04-24T13:26:15.563Z,0.57
2023-04-24T13:28:45.319Z,1.05
2023-04-24T13:31:15.030Z,0.70
2023-04-24T13:33:47.273Z,0.75
2023-04-24T13:36:17.935Z,0.63
2023-04-24T13:38:48.086Z,0.95
2023-04-24T13:41:17.827Z,0.60
2023-04-24T13:43:47.517Z,0.60
2023-04-24T13:46:17.299Z,0.43
2023-04-24T13:48:49.597Z,0.80
2023-04-24T13:51:19.474Z,0.57
2023-04-24T13:53:49.174Z,0.40
2023-04-24T13:56:19.038Z,0.40
2023-04-24T13:58:48.739Z,0.50
2023-04-24T14:01:18.712Z,0.40
2023-04-24T14:03:51.496Z,0.57
2023-04-24T14:06:21.375Z,0.50
2023-04-24T14:08:51.528Z,0.50
2023-04-24T14:11:21.851Z,0.40
2023-04-24T14:13:51.699Z,0.32
2023-04-24T14:16:21.524Z,0.20
2023-04-24T14:18:53.954Z,0.30
2023-04-24T14:21:23.659Z,0.63
2023-04-24T14:23:53.398Z,0.20
2023-04-24T14:26:23.736Z,0.30
2023-04-24T14:28:58.043Z,0.30
2023-04-24T14:31:33.680Z,0.30
2023-04-24T14:34:06.212Z,0.38
2023-04-24T14:36:36.284Z,0.30
2023-04-24T14:39:07.577Z,0.47
2023-04-24T14:41:38.320Z,0.38
2023-04-24T14:44:08.050Z,0.30
2023-04-24T14:46:37.862Z,0.40
2023-04-24T14:49:10.942Z,0.20
2023-04-24T14:51:41.914Z,0.20
2023-04-24T14:54:11.588Z,0.28
2023-04-24T14:56:42.167Z,0.20
2023-04-24T14:59:12.101Z,0.30
2023-04-24T15:01:41.864Z,0.40
2023-04-24T15:04:14.450Z,0.30
2023-04-24T15:06:44.204Z,0.30
2023-04-24T15:09:13.919Z,0.30
2023-04-24T15:11:43.677Z,0.40
2023-04-24T15:14:13.403Z,0.32
2023-04-24T15:16:43.205Z,0.22
2023-04-24T15:19:15.549Z,0.30
2023-04-24T15:21:45.676Z,0.30
2023-04-24T15:24:15.354Z,0.40
2023-04-24T15:26:45.058Z,0.40
2023-04-24T15:29:15.064Z,0.35
2023-04-24T15:31:44.911Z,0.30
2023-04-24T15:34:17.243Z,0.40
2023-04-24T15:36:47.283Z,0.38
2023-04-24T15:39:16.960Z,0.30
2023-04-24T15:41:46.607Z,0.52
2023-04-24T15:44:16.294Z,0.45
2023-04-24T15:46:46.044Z,0.30
2023-04-24T15:49:18.356Z,0.40
2023-04-24T15:51:48.140Z,0.30
2023-04-24T15:54:17.824Z,0.63
2023-04-24T15:56:47.520Z,0.40
2023-04-24T15:59:17.215Z,0.30
2023-04-24T16:01:47.028Z,0.40
2023-04-24T16:04:19.577Z,0.30
2023-04-24T16:06:49.753Z,0.38
2023-04-24T16:09:19.500Z,0.50
2023-04-24T16:11:49.189Z,0.50
2023-04-24T16:14:18.861Z,0.60
2023-04-24T16:16:48.575Z,0.63
2023-04-24T16:19:20.964Z,1.48
2023-04-24T16:21:52.037Z,0.88
2023-04-24T16:24:22.202Z,0.85
2023-04-24T16:26:52.513Z,0.70
2023-04-24T16:29:23.564Z,0.80
2023-04-24T16:31:53.701Z,1.10
2023-04-24T16:34:26.521Z,0.90
2023-04-24T16:36:56.378Z,1.38
2023-04-24T16:39:27.078Z,1.40
2023-04-24T16:41:59.651Z,1.38
2023-04-24T16:44:29.890Z,1.50
2023-04-24T16:47:00.068Z,1.27
2023-04-24T16:49:33.066Z,1.60
2023-04-24T16:52:03.030Z,1.55
2023-04-24T16:54:34.796Z,1.92
2023-04-24T16:57:05.238Z,1.95
2023-04-24T16:59:35.525Z,1.83
2023-04-24T17:02:05.258Z,1.50
2023-04-24T17:04:39.998Z,1.63
2023-04-24T17:07:10.240Z,2.08
2023-04-24T17:09:39.960Z,1.55
2023-04-24T17:12:11.072Z,2.17
2023-04-24T17:14:40.862Z,2.45
2023-04-24T17:17:10.775Z,2.80
2023-04-24T17:19:43.219Z,2.47
2023-04-24T17:22:12.934Z,2.97
2023-04-24T17:24:42.669Z,2.90
2023-04-24T17:27:15.309Z,2.45
2023-04-24T17:29:45.479Z,2.40
2023-04-24T17:32:15.222Z,2.05
2023-04-24T17:34:49.263Z,2.50
2023-04-24T17:37:23.198Z,2.53
2023-04-24T17:39:53.197Z,2.60
2023-04-24T17:42:22.928Z,2.60
2023-04-24T17:44:52.767Z,2.42
2023-04-24T17:47:22.915Z,2.30
2023-04-24T17:49:55.207Z,2.17
2023-04-24T17:52:24.887Z,2.00
2023-04-24T17:54:54.662Z,1.88
2023-04-24T17:57:24.421Z,1.77
2023-04-24T17:59:54.106Z,2.03
2023-04-24T18:02:23.881Z,1.33
2023-04-24T18:04:56.694Z,1.88
2023-04-24T18:07:26.508Z,1.90
2023-04-24T18:09:56.560Z,1.55
2023-04-24T18:12:26.420Z,1.10
2023-04-24T18:15:06.768Z,1.30
2023-04-24T18:17:43.366Z,1.35
2023-04-24T18:20:17.197Z,1.35
2023-04-24T18:22:47.394Z,1.00
2023-04-24T18:25:21.316Z,1.23
2023-04-24T18:27:51.106Z,1.45
2023-04-24T18:30:21.973Z,1.50
2023-04-24T18:32:53.244Z,1.10
2023-04-24T18:35:26.266Z,1.50
2023-04-24T18:37:56.145Z,1.38
2023-04-24T18:40:25.979Z,1.17
2023-04-24T18:42:56.104Z,1.58
2023-04-24T18:45:26.378Z,1.55
2023-04-24T18:47:56.262Z,1.33
2023-04-24T18:50:28.688Z,1.20
2023-04-24T18:52:58.817Z,1.30
2023-04-24T18:55:28.679Z,1.20
2023-04-24T18:57:58.461Z,1.10
2023-04-24T19:00:28.332Z,1.50
2023-04-24T19:02:58.457Z,1.10
2023-04-24T19:05:31.243Z,1.25
2023-04-24T19:08:01.063Z,1.30
2023-04-24T19:10:31.191Z,1.30
2023-04-24T19:13:01.983Z,1.42
2023-04-24T19:15:33.731Z,1.00
2023-04-24T19:18:03.712Z,1.10
2023-04-24T19:20:36.081Z,1.10
2023-04-24T19:23:06.320Z,1.23
2023-04-24T19:25:36.120Z,1.30
2023-04-24T19:28:07.014Z,1.05
2023-04-24T19:30:38.541Z,1.38
2023-04-24T19:33:08.457Z,1.40
2023-04-24T19:35:41.387Z,1.55
2023-04-24T19:38:11.292Z,1.38
2023-04-24T19:40:41.161Z,1.30
2023-04-24T19:43:10.991Z,1.13
2023-04-24T19:45:41.005Z,1.50
2023-04-24T19:48:11.101Z,1.35
2023-04-24T19:50:44.463Z,1.23
2023-04-24T19:53:14.843Z,1.38
2023-04-24T19:55:44.614Z,1.25
2023-04-24T19:58:14.346Z,1.20
2023-04-24T20:00:44.131Z,1.30
2023-04-24T20:03:25.512Z,1.48
2023-04-24T20:06:04.390Z,1.58
2023-04-24T20:08:34.201Z,1.10
2023-04-24T20:11:03.957Z,1.05
2023-04-24T20:13:34.676Z,1.30
2023-04-24T20:16:04.630Z,1.40
2023-04-24T20:18:34.545Z,1.45
2023-04-24T20:21:06.864Z,1.60
2023-04-24T20:23:36.821Z,1.50
2023-04-24T20:26:08.480Z,1.23
2023-04-24T20:28:38.151Z,1.40
2023-04-24T20:31:07.938Z,1.13
2023-04-24T20:33:40.944Z,1.00
2023-04-24T20:36:13.488Z,1.30
2023-04-24T20:38:43.187Z,1.27
2023-04-24T20:41:12.843Z,1.40
2023-04-24T20:43:42.680Z,1.20
2023-04-24T20:46:12.475Z,1.20
2023-04-24T20:48:42.157Z,1.45
2023-04-24T20:51:14.522Z,1.60
2023-04-24T20:53:44.221Z,1.42
2023-04-24T20:56:14.182Z,1.52
2023-04-24T20:58:43.922Z,1.48
2023-04-24T21:01:13.725Z,1.50
2023-04-24T21:03:43.952Z,1.52
2023-04-24T21:06:16.409Z,1.27
2023-04-24T21:08:46.059Z,1.88
2023-04-24T21:11:15.720Z,1.77
2023-04-24T21:13:45.815Z,1.70
2023-04-24T21:16:15.576Z,1.80
2023-04-24T21:18:45.318Z,1.92
2023-04-24T21:21:17.651Z,2.03
2023-04-24T21:23:47.514Z,1.90
2023-04-24T21:26:17.304Z,2.40
2023-04-24T21:28:47.071Z,2.17
2023-04-24T21:31:16.808Z,2.40
2023-04-24T21:33:46.532Z,2.70
2023-04-24T21:36:19.080Z,2.70
2023-04-24T21:38:48.780Z,1.77
2023-04-24T21:41:18.586Z,2.22
2023-04-24T21:43:50.441Z,2.42
2023-04-24T21:46:20.608Z,2.25
2023-04-24T21:48:50.335Z,2.13
2023-04-24T21:51:22.588Z,2.55
2023-04-24T21:53:52.252Z,2.20
2023-04-24T21:56:21.927Z,2.13
2023-04-24T21:58:51.706Z,2.03
2023-04-24T22:01:21.580Z,2.47
2023-04-24T22:03:51.811Z,2.15
2023-04-24T22:06:24.579Z,2.47
2023-04-24T22:08:54.261Z,2.10
2023-04-24T22:11:27.227Z,2.00
2023-04-24T22:13:57.534Z,2.30
2023-04-24T22:16:29.663Z,2.70
2023-04-24T22:19:00.649Z,2.50
2023-04-24T22:21:33.535Z,2.10
2023-04-24T22:24:03.278Z,2.42
2023-04-24T22:26:33.154Z,2.90
2023-04-24T22:29:03.178Z,2.78
2023-04-24T22:31:33.018Z,2.65
2023-04-24T22:34:02.774Z,2.28
2023-04-24T22:36:35.250Z,2.50
2023-04-24T22:39:05.256Z,2.30
2023-04-24T22:41:34.979Z,2.40
2023-04-24T22:44:04.989Z,2.42
2023-04-24T22:46:34.692Z,2.25
2023-04-24T22:49:05.509Z,2.63
2023-04-24T22:51:37.972Z,1.88
2023-04-24T22:54:07.950Z,2.60
2023-04-24T22:56:39.433Z,2.22
2023-04-24T22:59:09.238Z,2.05
2023-04-24T23:01:38.990Z,2.05
2023-04-24T23:04:09.628Z,2.13
2023-04-24T23:06:42.019Z,1.88
2023-04-24T23:09:11.840Z,2.38
2023-04-24T23:11:41.586Z,2.40
2023-04-24T23:14:11.289Z,2.10
2023-04-24T23:16:42.929Z,2.17
2023-04-24T23:19:12.853Z,2.13
2023-04-24T23:21:45.214Z,2.35
2023-04-24T23:24:14.989Z,2.40
2023-04-24T23:26:44.765Z,2.33
2023-04-24T23:29:14.438Z,2.10
2023-04-24T23:31:44.133Z,2.53
2023-04-24T23:34:14.349Z,2.55
2023-04-24T23:36:46.948Z,2.25
2023-04-24T23:39:16.793Z,2.33
2023-04-24T23:41:46.600Z,2.35
2023-04-24T23:44:16.405Z,3.00
2023-04-24T23:46:46.118Z,2.28
2023-04-24T23:49:15.808Z,2.35
2023-04-24T23:51:48.151Z,2.17
2023-04-24T23:54:17.931Z,2.80
2023-04-24T23:56:48.464Z,2.63
2023-04-24T23:59:20.769Z,2.47
